createdAt,value
2018-08-30T00:00:20.342Z,20.3
2018-08-30T00:01:22.393Z,20.3
2018-08-30T00:02:24.702Z,20.3
2018-08-30T00:03:26.736Z,20.3
2018-08-30T00:04:28.769Z,20.3
2018-08-30T00:05:31.088Z,20.3
2018-08-30T00:06:33.112Z,20.3
2018-08-30T00:07:35.148Z,20.3
2018-08-30T00:08:37.179Z,20.3
2018-08-30T00:09:39.225Z,20.3
2018-08-30T00:10:41.246Z,20.3
2018-08-30T00:11:43.280Z,20.3
2018-08-30T00:12:45.608Z,20.3
2018-08-30T00:13:47.633Z,20.3
2018-08-30T00:14:49.962Z,20.3
2018-08-30T00:15:52.285Z,20.3
2018-08-30T00:16:54.314Z,20.2
2018-08-30T00:17:56.347Z,20.2
2018-08-30T00:18:58.388Z,20.2
2018-08-30T00:20:00.426Z,20.2
2018-08-30T00:21:02.463Z,20.2
2018-08-30T00:22:04.781Z,20.2
2018-08-30T00:23:06.803Z,20.2
2018-08-30T00:24:08.836Z,20.3
2018-08-30T00:25:10.882Z,20.2
2018-08-30T00:26:12.903Z,20.2
2018-08-30T00:27:14.942Z,20.2
2018-08-30T00:28:17.270Z,20.2
2018-08-30T00:29:19.304Z,20.2
2018-08-30T00:30:21.348Z,20.2
2018-08-30T00:31:23.377Z,20.2
2018-08-30T00:32:26.257Z,20.2
2018-08-30T00:33:28.288Z,20.2
2018-08-30T00:34:30.336Z,20.2
2018-08-30T00:35:32.363Z,20.2
2018-08-30T00:36:34.397Z,20.1
2018-08-30T00:37:36.435Z,20.1
2018-08-30T00:38:38.458Z,20.1
2018-08-30T00:39:40.506Z,20.1
2018-08-30T00:40:42.543Z,20
2018-08-30T00:41:44.584Z,20
2018-08-30T00:42:46.608Z,19.9
2018-08-30T00:43:48.657Z,19.9
2018-08-30T00:44:50.691Z,20
2018-08-30T00:45:52.721Z,20
2018-08-30T00:46:54.769Z,20
2018-08-30T00:47:56.796Z,20
2018-08-30T00:48:58.836Z,20
2018-08-30T00:50:00.874Z,20
2018-08-30T00:51:02.912Z,19.9
2018-08-30T00:52:04.939Z,19.9
2018-08-30T00:53:06.968Z,19.9
2018-08-30T00:54:09.008Z,19.9
2018-08-30T00:55:11.438Z,19.8
2018-08-30T00:56:13.482Z,19.8
2018-08-30T00:57:15.513Z,19.8
2018-08-30T00:58:17.543Z,19.7
2018-08-30T00:59:19.585Z,19.7
2018-08-30T01:00:21.615Z,19.7
2018-08-30T01:01:23.937Z,19.7
2018-08-30T01:02:25.974Z,19.7
2018-08-30T01:03:28.001Z,19.7
2018-08-30T01:04:30.043Z,19.7
2018-08-30T01:05:32.078Z,19.7
2018-08-30T01:06:34.116Z,19.7
2018-08-30T01:07:36.421Z,19.7
2018-08-30T01:08:38.470Z,19.7
2018-08-30T01:09:40.508Z,19.6
2018-08-30T01:10:42.817Z,19.6
2018-08-30T01:11:44.864Z,19.6
2018-08-30T01:12:46.891Z,19.6
2018-08-30T01:13:48.929Z,19.6
2018-08-30T01:14:50.963Z,19.6
2018-08-30T01:15:53.007Z,19.6
2018-08-30T01:16:55.418Z,19.5
2018-08-30T01:17:57.736Z,19.5
2018-08-30T01:18:59.779Z,19.5
2018-08-30T01:20:02.185Z,19.5
2018-08-30T01:21:04.901Z,19.5
2018-08-30T01:22:06.937Z,19.5
2018-08-30T01:23:09.263Z,19.5
2018-08-30T01:24:11.298Z,19.5
2018-08-30T01:25:13.324Z,19.5
2018-08-30T01:26:15.640Z,19.5
2018-08-30T01:27:18.002Z,19.5
2018-08-30T01:28:20.040Z,19.5
2018-08-30T01:29:22.081Z,19.4
2018-08-30T01:30:24.117Z,19.3
2018-08-30T01:31:26.145Z,19.3
2018-08-30T01:32:28.342Z,19.3
2018-08-30T01:33:30.372Z,19.3
2018-08-30T01:34:32.406Z,19.3
2018-08-30T01:35:34.443Z,19.3
2018-08-30T01:36:36.469Z,19.2
2018-08-30T01:37:38.821Z,19.1
2018-08-30T01:38:40.857Z,19
2018-08-30T01:39:42.899Z,19
2018-08-30T01:40:44.927Z,19
2018-08-30T01:41:46.978Z,18.9
2018-08-30T01:42:49.007Z,19
2018-08-30T01:43:51.039Z,18.9
2018-08-30T01:44:53.081Z,18.8
2018-08-30T01:45:55.101Z,18.9
2018-08-30T01:46:57.135Z,18.9
2018-08-30T01:47:59.167Z,18.8
2018-08-30T01:49:01.509Z,18.8
2018-08-30T01:50:03.533Z,18.8
2018-08-30T01:51:05.567Z,18.8
2018-08-30T01:52:07.609Z,18.7
2018-08-30T01:53:09.632Z,18.8
2018-08-30T01:54:11.678Z,18.8
2018-08-30T01:55:13.715Z,18.8
2018-08-30T01:56:15.746Z,18.9
2018-08-30T01:57:17.781Z,18.9
2018-08-30T01:58:19.827Z,18.9
2018-08-30T01:59:21.862Z,18.7
2018-08-30T02:00:23.895Z,18.5
2018-08-30T02:01:25.929Z,18.5
2018-08-30T02:02:27.972Z,18.4
2018-08-30T02:03:30.005Z,18.3
2018-08-30T02:04:32.035Z,18.4
2018-08-30T02:05:34.077Z,18.4
2018-08-30T02:06:36.105Z,18.5
2018-08-30T02:07:38.523Z,18.5
2018-08-30T02:08:40.560Z,18.4
2018-08-30T02:09:42.587Z,18.4
2018-08-30T02:10:44.625Z,18.4
2018-08-30T02:11:47.045Z,18.2
2018-08-30T02:12:49.088Z,18.3
2018-08-30T02:13:51.113Z,18.2
2018-08-30T02:14:53.150Z,18.2
2018-08-30T02:15:55.472Z,18.2
2018-08-30T02:16:57.505Z,18.1
2018-08-30T02:17:59.552Z,18.1
2018-08-30T02:19:01.956Z,18.1
2018-08-30T02:20:03.994Z,18.1
2018-08-30T02:21:06.028Z,18
2018-08-30T02:22:08.067Z,18
2018-08-30T02:23:10.092Z,18
2018-08-30T02:24:12.133Z,18.1
2018-08-30T02:25:14.174Z,18.1
2018-08-30T02:26:16.200Z,18.1
2018-08-30T02:27:18.243Z,18
2018-08-30T02:28:20.959Z,17.9
2018-08-30T02:29:22.979Z,17.9
2018-08-30T02:30:25.325Z,17.9
2018-08-30T02:31:27.663Z,17.6
2018-08-30T02:32:29.696Z,17.6
2018-08-30T02:33:31.730Z,17.6
2018-08-30T02:34:33.767Z,17.6
2018-08-30T02:35:35.789Z,17.6
2018-08-30T02:36:37.827Z,17.4
2018-08-30T02:37:40.139Z,17.4
2018-08-30T02:38:42.177Z,17.3
2018-08-30T02:39:44.208Z,17.2
2018-08-30T02:40:46.242Z,17.3
2018-08-30T02:41:48.280Z,17.1
2018-08-30T02:42:50.690Z,17.1
2018-08-30T02:43:53.011Z,17
2018-08-30T02:44:55.048Z,17
2018-08-30T02:45:57.089Z,17
2018-08-30T02:46:59.117Z,16.9
2018-08-30T02:48:01.161Z,16.8
2018-08-30T02:49:03.666Z,16.7
2018-08-30T02:50:05.623Z,16.7
2018-08-30T02:51:07.973Z,16.8
2018-08-30T02:52:09.995Z,16.9
2018-08-30T02:53:12.316Z,16.9
2018-08-30T02:54:14.344Z,16.9
2018-08-30T02:55:16.404Z,16.8
2018-08-30T02:56:18.423Z,16.7
2018-08-30T02:57:20.451Z,16.7
2018-08-30T02:58:22.782Z,16.6
2018-08-30T02:59:24.808Z,16.7
2018-08-30T03:00:27.261Z,16.7
2018-08-30T03:01:29.573Z,16.7
2018-08-30T03:02:31.636Z,16.6
2018-08-30T03:03:33.634Z,16.7
2018-08-30T03:04:35.969Z,16.6
2018-08-30T03:05:37.999Z,16.6
2018-08-30T03:06:40.032Z,16.6
2018-08-30T03:07:42.068Z,16.5
2018-08-30T03:08:44.401Z,16.5
2018-08-30T03:09:46.433Z,16.5
2018-08-30T03:10:48.473Z,16.5
2018-08-30T03:11:50.490Z,16.5
2018-08-30T03:12:52.529Z,16.5
2018-08-30T03:13:54.564Z,16.5
2018-08-30T03:14:56.879Z,16.5
2018-08-30T03:15:58.917Z,16.5
2018-08-30T03:17:00.943Z,16.5
2018-08-30T03:18:02.975Z,16.4
2018-08-30T03:19:05.006Z,16.3
2018-08-30T03:20:07.044Z,16.3
2018-08-30T03:21:09.064Z,16.4
2018-08-30T03:22:11.100Z,16.3
2018-08-30T03:23:13.519Z,16.3
2018-08-30T03:24:15.541Z,16.3
2018-08-30T03:25:17.586Z,16.4
2018-08-30T03:26:19.624Z,16.4
2018-08-30T03:27:21.660Z,16.3
2018-08-30T03:28:23.682Z,16.3
2018-08-30T03:29:26.010Z,16.1
2018-08-30T03:30:28.634Z,16.3
2018-08-30T03:31:30.811Z,16.3
2018-08-30T03:32:33.487Z,16.3
2018-08-30T03:33:36.184Z,16.3
2018-08-30T03:34:38.218Z,16.3
2018-08-30T03:35:40.256Z,16.3
2018-08-30T03:36:42.681Z,16.3
2018-08-30T03:37:44.701Z,16.3
2018-08-30T03:38:46.739Z,16.3
2018-08-30T03:39:48.767Z,16.2
2018-08-30T03:40:51.182Z,16.2
2018-08-30T03:41:53.227Z,16.1
2018-08-30T03:42:55.825Z,16.1
2018-08-30T03:43:57.873Z,16
2018-08-30T03:45:00.202Z,16.1
2018-08-30T03:46:02.230Z,16.1
2018-08-30T03:47:05.247Z,16.1
2018-08-30T03:48:07.202Z,16
2018-08-30T03:49:09.229Z,16
2018-08-30T03:50:12.211Z,16
2018-08-30T03:51:14.530Z,16.1
2018-08-30T03:52:16.568Z,16.1
2018-08-30T03:53:18.894Z,16.2
2018-08-30T03:54:20.918Z,16.1
2018-08-30T03:55:22.952Z,16
2018-08-30T03:56:25.282Z,16.1
2018-08-30T03:57:27.308Z,16.1
2018-08-30T03:58:29.632Z,16.1
2018-08-30T03:59:32.267Z,16.2
2018-08-30T04:00:34.308Z,16.2
2018-08-30T04:01:36.330Z,16.2
2018-08-30T04:02:38.375Z,16.2
2018-08-30T04:03:41.013Z,16.1
2018-08-30T04:04:43.323Z,16.1
2018-08-30T04:05:45.371Z,16
2018-08-30T04:06:47.676Z,16
2018-08-30T04:07:49.709Z,16
2018-08-30T04:08:51.746Z,16.1
2018-08-30T04:09:53.776Z,16.2
2018-08-30T04:10:55.800Z,16.2
2018-08-30T04:11:58.131Z,16.2
2018-08-30T04:13:00.166Z,16.1
2018-08-30T04:14:02.200Z,16.1
2018-08-30T04:15:04.239Z,16.1
2018-08-30T04:16:06.271Z,16
2018-08-30T04:17:08.984Z,16
2018-08-30T04:18:11.029Z,16
2018-08-30T04:19:13.058Z,16
2018-08-30T04:20:15.081Z,16
2018-08-30T04:21:17.398Z,16.1
2018-08-30T04:22:19.421Z,16.1
2018-08-30T04:23:21.460Z,16
2018-08-30T04:24:23.879Z,15.9
2018-08-30T04:25:25.917Z,16
2018-08-30T04:26:27.943Z,16
2018-08-30T04:27:29.981Z,16
2018-08-30T04:28:32.013Z,15.9
2018-08-30T04:29:34.046Z,15.9
2018-08-30T04:30:36.079Z,15.9
2018-08-30T04:31:38.235Z,15.9
2018-08-30T04:32:40.161Z,16
2018-08-30T04:33:42.736Z,16
2018-08-30T04:34:45.318Z,16.1
2018-08-30T04:35:47.673Z,16.1
2018-08-30T04:36:50.090Z,16.1
2018-08-30T04:37:52.501Z,16.1
2018-08-30T04:38:54.544Z,15.9
2018-08-30T04:39:56.845Z,16
2018-08-30T04:40:58.875Z,15.9
2018-08-30T04:42:00.913Z,16
2018-08-30T04:43:03.234Z,16
2018-08-30T04:44:05.534Z,15.9
2018-08-30T04:45:07.566Z,15.8
2018-08-30T04:46:09.597Z,15.8
2018-08-30T04:47:11.634Z,15.8
2018-08-30T04:48:14.241Z,15.9
2018-08-30T04:49:16.276Z,15.9
2018-08-30T04:50:18.785Z,15.9
2018-08-30T04:51:20.732Z,15.9
2018-08-30T04:52:22.761Z,16
2018-08-30T04:53:24.793Z,16
2018-08-30T04:54:27.215Z,16
2018-08-30T04:55:29.243Z,15.9
2018-08-30T04:56:31.280Z,15.9
2018-08-30T04:57:33.697Z,15.9
2018-08-30T04:58:35.732Z,15.9
2018-08-30T04:59:37.759Z,15.9
2018-08-30T05:00:40.189Z,15.9
2018-08-30T05:01:42.264Z,15.9
2018-08-30T05:02:44.254Z,15.9
2018-08-30T05:03:46.301Z,15.9
2018-08-30T05:04:48.322Z,15.9
2018-08-30T05:05:50.352Z,15.9
2018-08-30T05:06:52.381Z,15.9
2018-08-30T05:07:54.707Z,15.8
2018-08-30T05:08:56.731Z,15.8
2018-08-30T05:09:59.227Z,15.8
2018-08-30T05:11:01.194Z,15.8
2018-08-30T05:12:03.631Z,15.8
2018-08-30T05:13:05.652Z,15.8
2018-08-30T05:14:07.968Z,15.8
2018-08-30T05:15:10.004Z,15.7
2018-08-30T05:16:12.036Z,15.7
2018-08-30T05:17:14.439Z,15.8
2018-08-30T05:18:16.469Z,15.8
2018-08-30T05:19:18.497Z,15.8
2018-08-30T05:20:20.529Z,15.7
2018-08-30T05:21:22.568Z,15.8
2018-08-30T05:22:24.875Z,15.8
2018-08-30T05:23:26.901Z,15.7
2018-08-30T05:24:28.947Z,15.7
2018-08-30T05:25:30.972Z,15.7
2018-08-30T05:26:33.009Z,15.7
2018-08-30T05:27:35.038Z,15.7
2018-08-30T05:28:37.059Z,15.7
2018-08-30T05:29:39.099Z,15.7
2018-08-30T05:30:41.418Z,15.6
2018-08-30T05:31:43.453Z,15.7
2018-08-30T05:32:45.478Z,15.7
2018-08-30T05:33:48.478Z,15.7
2018-08-30T05:34:50.791Z,15.7
2018-08-30T05:35:52.955Z,15.7
2018-08-30T05:36:54.866Z,15.7
2018-08-30T05:37:57.273Z,15.7
2018-08-30T05:38:59.310Z,15.8
2018-08-30T05:40:01.334Z,15.8
2018-08-30T05:41:03.978Z,15.8
2018-08-30T05:42:05.999Z,15.7
2018-08-30T05:43:08.321Z,15.7
2018-08-30T05:44:10.360Z,15.8
2018-08-30T05:45:12.382Z,15.8
2018-08-30T05:46:14.426Z,15.8
2018-08-30T05:47:16.459Z,15.8
2018-08-30T05:48:18.486Z,15.8
2018-08-30T05:49:20.518Z,15.7
2018-08-30T05:50:22.564Z,15.8
2018-08-30T05:51:24.889Z,15.8
2018-08-30T05:52:26.924Z,15.8
2018-08-30T05:53:28.959Z,15.7
2018-08-30T05:54:30.979Z,15.8
2018-08-30T05:55:33.018Z,15.8
2018-08-30T05:56:35.052Z,15.8
2018-08-30T05:57:37.073Z,15.8
2018-08-30T05:58:39.114Z,15.8
2018-08-30T05:59:41.139Z,15.8
2018-08-30T06:00:43.461Z,15.8
2018-08-30T06:01:45.500Z,15.9
2018-08-30T06:02:47.528Z,15.9
2018-08-30T06:03:49.559Z,15.8
2018-08-30T06:04:51.585Z,15.9
2018-08-30T06:05:53.919Z,15.9
2018-08-30T06:06:55.940Z,15.9
2018-08-30T06:07:57.966Z,15.9
2018-08-30T06:08:59.999Z,15.9
2018-08-30T06:10:02.017Z,15.9
2018-08-30T06:11:04.061Z,15.9
2018-08-30T06:12:06.091Z,15.9
2018-08-30T06:13:08.608Z,15.9
2018-08-30T06:14:10.545Z,15.9
2018-08-30T06:15:12.591Z,16
2018-08-30T06:16:14.621Z,16
2018-08-30T06:17:16.651Z,16
2018-08-30T06:18:18.697Z,16
2018-08-30T06:19:21.010Z,16.1
2018-08-30T06:20:23.326Z,16.1
2018-08-30T06:21:25.359Z,16.1
2018-08-30T06:22:27.391Z,16.1
2018-08-30T06:23:29.413Z,16.1
2018-08-30T06:24:31.442Z,16
2018-08-30T06:25:33.862Z,16
2018-08-30T06:26:35.902Z,16.1
2018-08-30T06:27:37.926Z,16.1
2018-08-30T06:28:39.953Z,16.1
2018-08-30T06:29:41.999Z,16
2018-08-30T06:30:44.311Z,16.1
2018-08-30T06:31:46.344Z,16.1
2018-08-30T06:32:48.442Z,16.1
2018-08-30T06:33:50.795Z,16.2
2018-08-30T06:34:53.552Z,16.2
2018-08-30T06:35:55.580Z,16.2
2018-08-30T06:36:57.945Z,16.2
2018-08-30T06:37:59.972Z,16.2
2018-08-30T06:39:02.015Z,16.2
2018-08-30T06:40:04.320Z,16.2
2018-08-30T06:41:06.351Z,16.2
2018-08-30T06:42:08.384Z,16.3
2018-08-30T06:43:10.408Z,16.3
2018-08-30T06:44:12.449Z,16.3
2018-08-30T06:45:14.482Z,16.2
2018-08-30T06:46:16.809Z,16.3
2018-08-30T06:47:18.828Z,16.4
2018-08-30T06:48:20.870Z,16.3
2018-08-30T06:49:22.902Z,16.3
2018-08-30T06:50:24.929Z,16.3
2018-08-30T06:51:26.975Z,16.3
2018-08-30T06:52:29.308Z,16.4
2018-08-30T06:53:31.343Z,16.4
2018-08-30T06:54:33.385Z,16.3
2018-08-30T06:55:35.424Z,16.4
2018-08-30T06:56:37.446Z,16.4
2018-08-30T06:57:39.483Z,16.4
2018-08-30T06:58:41.798Z,16.4
2018-08-30T06:59:43.834Z,16.4
2018-08-30T07:00:45.874Z,16.3
2018-08-30T07:01:48.193Z,16.4
2018-08-30T07:02:50.616Z,16.4
2018-08-30T07:03:52.644Z,16.5
2018-08-30T07:04:54.681Z,16.5
2018-08-30T07:05:56.717Z,16.5
2018-08-30T07:06:58.751Z,16.5
2018-08-30T07:08:00.847Z,16.5
2018-08-30T07:09:02.830Z,16.5
2018-08-30T07:10:05.152Z,16.5
2018-08-30T07:11:26.439Z,16.5
2018-08-30T07:12:28.557Z,16.5
2018-08-30T07:13:30.645Z,16.5
2018-08-30T07:14:32.802Z,16.4
2018-08-30T07:15:34.846Z,16.5
2018-08-30T07:16:36.931Z,16.5
2018-08-30T07:17:39.044Z,16.4
2018-08-30T07:18:41.166Z,16.5
2018-08-30T07:19:43.660Z,16.4
2018-08-30T07:20:45.748Z,16.5
2018-08-30T07:21:47.864Z,16.4
2018-08-30T07:22:50.656Z,16.5
2018-08-30T07:23:52.748Z,16.5
2018-08-30T07:24:54.862Z,16.5
2018-08-30T07:25:56.952Z,16.5
2018-08-30T07:26:59.055Z,16.5
2018-08-30T07:28:01.456Z,16.5
2018-08-30T07:29:03.854Z,16.5
2018-08-30T07:30:05.935Z,16.5
2018-08-30T07:31:08.038Z,16.5
2018-08-30T07:32:10.134Z,16.5
2018-08-30T07:33:12.242Z,16.5
2018-08-30T07:34:14.358Z,16.5
2018-08-30T07:35:16.457Z,16.6
2018-08-30T07:36:18.549Z,16.6
2018-08-30T07:37:20.663Z,16.6
2018-08-30T07:38:22.763Z,16.6
2018-08-30T07:39:24.859Z,16.6
2018-08-30T07:40:26.954Z,16.7
2018-08-30T07:41:29.072Z,16.7
2018-08-30T07:42:31.171Z,16.6
2018-08-30T07:43:33.275Z,16.6
2018-08-30T07:44:35.472Z,16.7
2018-08-30T07:45:37.486Z,16.7
2018-08-30T07:46:39.577Z,16.7
2018-08-30T07:47:41.678Z,16.7
2018-08-30T07:48:43.834Z,16.7
2018-08-30T07:49:45.910Z,16.8
2018-08-30T07:50:48.326Z,16.8
2018-08-30T07:51:50.400Z,16.8
2018-08-30T07:52:52.510Z,16.8
2018-08-30T07:53:54.595Z,16.8
2018-08-30T07:54:56.708Z,16.8
2018-08-30T07:55:58.806Z,16.9
2018-08-30T07:57:00.903Z,16.9
2018-08-30T07:58:03.015Z,16.9
2018-08-30T07:59:05.108Z,17
2018-08-30T08:00:07.327Z,17
2018-08-30T08:01:09.323Z,17
2018-08-30T08:02:11.423Z,17
2018-08-30T08:03:13.516Z,17
2018-08-30T08:04:15.623Z,17
2018-08-30T08:05:17.719Z,17
2018-08-30T08:06:19.819Z,17.1
2018-08-30T08:07:22.622Z,17.1
2018-08-30T08:08:24.614Z,17.1
2018-08-30T08:09:26.708Z,17.1
2018-08-30T08:10:28.824Z,17.2
2018-08-30T08:11:30.924Z,17.1
2018-08-30T08:12:33.075Z,17.1
2018-08-30T08:13:35.133Z,17.1
2018-08-30T08:14:37.222Z,17.2
2018-08-30T08:15:39.330Z,17.3
2018-08-30T08:16:41.463Z,17.3
2018-08-30T08:17:43.536Z,17.4
2018-08-30T08:18:45.907Z,17.4
2018-08-30T08:19:48.019Z,17.4
2018-08-30T08:20:50.720Z,17.4
2018-08-30T08:21:52.813Z,17.4
2018-08-30T08:22:54.929Z,17.5
2018-08-30T08:23:57.020Z,17.6
2018-08-30T08:24:59.121Z,17.6
2018-08-30T08:26:01.214Z,17.5
2018-08-30T08:27:03.325Z,17.5
2018-08-30T08:28:05.411Z,17.5
2018-08-30T08:29:07.516Z,17.5
2018-08-30T08:30:09.619Z,17.6
2018-08-30T08:31:11.740Z,17.7
2018-08-30T08:32:13.819Z,17.6
2018-08-30T08:33:16.445Z,17.6
2018-08-30T08:34:18.537Z,17.6
2018-08-30T08:35:20.988Z,17.7
2018-08-30T08:36:23.105Z,17.7
2018-08-30T08:37:25.200Z,17.8
2018-08-30T08:38:27.312Z,17.8
2018-08-30T08:39:29.418Z,17.7
2018-08-30T08:40:31.798Z,17.7
2018-08-30T08:41:33.904Z,17.7
2018-08-30T08:42:36.406Z,17.7
2018-08-30T08:43:39.093Z,17.7
2018-08-30T08:44:41.593Z,17.7
2018-08-30T08:45:43.702Z,17.8
2018-08-30T08:46:46.196Z,17.8
2018-08-30T08:47:48.354Z,17.7
2018-08-30T08:48:50.423Z,17.8
2018-08-30T08:49:52.524Z,17.8
2018-08-30T08:50:54.630Z,17.8
2018-08-30T08:51:56.751Z,17.8
2018-08-30T08:52:58.872Z,17.7
2018-08-30T08:54:00.977Z,17.8
2018-08-30T08:55:03.491Z,17.8
2018-08-30T08:56:05.593Z,17.8
2018-08-30T08:57:07.689Z,17.8
2018-08-30T08:58:09.841Z,17.7
2018-08-30T08:59:11.992Z,17.8
2018-08-30T09:00:14.065Z,17.8
2018-08-30T09:01:16.183Z,17.7
2018-08-30T09:02:18.269Z,17.7
2018-08-30T09:03:20.373Z,17.7
2018-08-30T09:04:22.472Z,17.6
2018-08-30T09:05:24.695Z,17.7
2018-08-30T09:06:26.816Z,17.6
2018-08-30T09:07:28.938Z,17.7
2018-08-30T09:08:34.029Z,17.8
2018-08-30T09:09:36.902Z,17.8
2018-08-30T09:10:39.009Z,17.8
2018-08-30T09:11:41.123Z,17.8
2018-08-30T09:12:43.521Z,17.8
2018-08-30T09:13:46.044Z,17.7
2018-08-30T09:14:48.153Z,17.8
2018-08-30T09:15:50.977Z,17.8
2018-08-30T09:16:53.377Z,17.8
2018-08-30T09:17:55.495Z,17.8
2018-08-30T09:18:58.314Z,17.7
2018-08-30T09:20:00.801Z,17.8
2018-08-30T09:21:03.234Z,17.8
2018-08-30T09:22:05.412Z,17.8
2018-08-30T09:23:08.153Z,17.8
2018-08-30T09:24:10.893Z,17.8
2018-08-30T09:25:13.015Z,17.7
2018-08-30T09:26:15.292Z,17.8
2018-08-30T09:27:17.550Z,17.9
2018-08-30T09:28:19.555Z,17.9
2018-08-30T09:29:21.647Z,17.8
2018-08-30T09:30:24.049Z,17.8
2018-08-30T09:31:26.597Z,17.7
2018-08-30T09:32:28.712Z,17.7
2018-08-30T09:33:31.200Z,17.8
2018-08-30T09:34:33.397Z,17.7
2018-08-30T09:35:35.496Z,17.9
2018-08-30T09:36:37.598Z,17.9
2018-08-30T09:37:39.715Z,17.9
2018-08-30T09:38:42.100Z,17.9
2018-08-30T09:39:44.204Z,18
2018-08-30T09:40:46.932Z,17.9
2018-08-30T09:41:49.040Z,17.9
2018-08-30T09:42:51.138Z,17.9
2018-08-30T09:43:53.294Z,17.9
2018-08-30T09:44:55.344Z,17.8
2018-08-30T09:45:57.449Z,17.9
2018-08-30T09:46:59.863Z,17.9
2018-08-30T09:48:01.979Z,17.9
2018-08-30T09:49:04.072Z,17.9
2018-08-30T09:50:06.193Z,17.9
2018-08-30T09:51:08.293Z,17.9
2018-08-30T09:52:10.394Z,17.9
2018-08-30T09:53:12.645Z,17.9
2018-08-30T09:54:15.128Z,17.9
2018-08-30T09:55:17.651Z,17.8
2018-08-30T09:56:19.895Z,17.8
2018-08-30T09:57:22.230Z,17.9
2018-08-30T09:58:24.124Z,17.9
2018-08-30T09:59:26.238Z,17.9
2018-08-30T10:00:28.730Z,17.9
2018-08-30T10:01:30.839Z,17.9
2018-08-30T10:02:32.952Z,17.9
2018-08-30T10:03:35.441Z,17.9
2018-08-30T10:04:38.042Z,17.9
2018-08-30T10:05:40.140Z,17.9
2018-08-30T10:06:42.658Z,17.9
2018-08-30T10:07:44.773Z,17.9
2018-08-30T10:08:46.904Z,17.9
2018-08-30T10:09:49.029Z,18
2018-08-30T10:10:51.143Z,18
2018-08-30T10:11:53.988Z,18
2018-08-30T10:12:56.181Z,18
2018-08-30T10:13:58.612Z,18
2018-08-30T10:15:00.741Z,18
2018-08-30T10:16:03.470Z,18
2018-08-30T10:17:06.330Z,17.9
2018-08-30T10:18:08.441Z,17.9
2018-08-30T10:19:10.560Z,18
2018-08-30T10:20:12.978Z,18
2018-08-30T10:21:15.097Z,18.1
2018-08-30T10:22:17.591Z,18
2018-08-30T10:23:19.724Z,18
2018-08-30T10:24:21.862Z,18
2018-08-30T10:25:24.448Z,18
2018-08-30T10:26:26.610Z,17.9
2018-08-30T10:27:28.711Z,18
2018-08-30T10:28:30.818Z,18
2018-08-30T10:29:32.922Z,18
2018-08-30T10:30:35.041Z,18
2018-08-30T10:31:37.188Z,18
2018-08-30T10:32:39.317Z,18
2018-08-30T10:33:41.751Z,18
2018-08-30T10:34:43.858Z,17.9
2018-08-30T10:35:45.980Z,18
2018-08-30T10:36:48.116Z,18
2018-08-30T10:37:50.184Z,18
2018-08-30T10:38:52.675Z,18
2018-08-30T10:39:55.083Z,18
2018-08-30T10:40:57.178Z,17.9
2018-08-30T10:41:59.283Z,17.9
2018-08-30T10:43:01.851Z,18
2018-08-30T10:44:04.657Z,17.9
2018-08-30T10:45:06.780Z,17.9
2018-08-30T10:46:08.885Z,17.9
2018-08-30T10:47:11.966Z,17.9
2018-08-30T10:48:14.086Z,18
2018-08-30T10:49:16.659Z,18
2018-08-30T10:50:18.750Z,17.9
2018-08-30T10:51:20.861Z,17.8
2018-08-30T10:52:23.357Z,17.9
2018-08-30T10:53:25.454Z,17.9
2018-08-30T10:54:27.558Z,17.9
2018-08-30T10:55:29.676Z,17.8
2018-08-30T10:56:31.769Z,17.9
2018-08-30T10:57:33.878Z,17.9
2018-08-30T10:58:35.987Z,17.8
2018-08-30T10:59:38.089Z,17.7
2018-08-30T11:00:40.215Z,17.8
2018-08-30T11:01:42.606Z,17.8
2018-08-30T11:02:44.711Z,17.8
2018-08-30T11:03:46.834Z,17.8
2018-08-30T11:04:48.927Z,17.8
2018-08-30T11:05:51.027Z,17.8
2018-08-30T11:06:54.585Z,17.8
2018-08-30T11:07:57.055Z,17.8
2018-08-30T11:08:59.139Z,17.9
2018-08-30T11:10:02.345Z,17.9
2018-08-30T11:11:04.450Z,17.8
2018-08-30T11:12:06.560Z,17.9
2018-08-30T11:13:08.822Z,17.8
2018-08-30T11:14:10.773Z,17.7
2018-08-30T11:15:12.875Z,17.8
2018-08-30T11:16:14.976Z,17.8
2018-08-30T11:17:17.112Z,17.9
2018-08-30T11:18:19.212Z,17.9
2018-08-30T11:19:21.347Z,17.8
2018-08-30T11:20:23.759Z,17.9
2018-08-30T11:21:25.865Z,17.9
2018-08-30T11:22:27.960Z,17.8
2018-08-30T11:23:30.075Z,17.9
2018-08-30T11:24:32.195Z,17.8
2018-08-30T11:25:34.286Z,17.9
2018-08-30T11:26:36.756Z,17.9
2018-08-30T11:27:38.858Z,17.9
2018-08-30T11:28:40.966Z,17.9
2018-08-30T11:29:43.055Z,18
2018-08-30T11:30:45.159Z,17.9
2018-08-30T11:31:47.553Z,17.9
2018-08-30T11:32:49.645Z,18
2018-08-30T11:33:52.080Z,17.9
2018-08-30T11:34:54.575Z,17.9
2018-08-30T11:35:56.679Z,17.9
2018-08-30T11:36:58.770Z,17.9
2018-08-30T11:38:00.887Z,17.9
2018-08-30T11:39:02.980Z,18
2018-08-30T11:40:05.084Z,18
2018-08-30T11:41:07.249Z,17.9
2018-08-30T11:42:09.286Z,18
2018-08-30T11:43:11.772Z,18
2018-08-30T11:44:13.830Z,18.1
2018-08-30T11:45:15.935Z,18.1
2018-08-30T11:46:18.024Z,18.1
2018-08-30T11:47:20.135Z,18.1
2018-08-30T11:48:22.263Z,18
2018-08-30T11:49:24.359Z,18.1
2018-08-30T11:50:26.766Z,18.1
2018-08-30T11:51:29.164Z,18.1
2018-08-30T11:52:31.305Z,18
2018-08-30T11:53:33.741Z,18.1
2018-08-30T11:54:36.133Z,18.1
2018-08-30T11:55:38.223Z,17.9
2018-08-30T11:56:40.329Z,18
2018-08-30T11:57:42.812Z,18
2018-08-30T11:58:45.226Z,18.1
2018-08-30T11:59:47.335Z,18
2018-08-30T12:00:49.541Z,18
2018-08-30T12:01:51.536Z,18
2018-08-30T12:02:54.042Z,18
2018-08-30T12:03:56.144Z,18
2018-08-30T12:04:58.241Z,17.9
2018-08-30T12:06:00.340Z,17.9
2018-08-30T12:07:02.539Z,17.9
2018-08-30T12:08:05.096Z,17.9
2018-08-30T12:09:07.377Z,18
2018-08-30T12:10:09.535Z,17.8
2018-08-30T12:11:11.635Z,17.8
2018-08-30T12:12:13.679Z,17.8
2018-08-30T12:13:16.071Z,17.8
2018-08-30T12:14:18.178Z,17.9
2018-08-30T12:15:20.264Z,17.8
2018-08-30T12:16:22.376Z,17.9
2018-08-30T12:17:24.474Z,17.8
2018-08-30T12:18:26.900Z,17.8
2018-08-30T12:19:29.292Z,17.8
2018-08-30T12:20:31.446Z,17.8
2018-08-30T12:21:33.813Z,17.8
2018-08-30T12:22:36.193Z,17.8
2018-08-30T12:23:38.314Z,17.7
2018-08-30T12:24:40.703Z,17.7
2018-08-30T12:25:43.095Z,17.7
2018-08-30T12:26:45.207Z,17.7
2018-08-30T12:27:47.320Z,17.8
2018-08-30T12:28:49.807Z,17.8
2018-08-30T12:29:51.848Z,17.8
2018-08-30T12:30:53.977Z,17.9
2018-08-30T12:31:56.092Z,17.8
2018-08-30T12:32:58.930Z,17.9
2018-08-30T12:34:01.450Z,17.9
2018-08-30T12:35:03.616Z,17.9
2018-08-30T12:36:05.623Z,17.9
2018-08-30T12:37:07.700Z,17.9
2018-08-30T12:38:09.771Z,18
2018-08-30T12:39:12.904Z,18
2018-08-30T12:40:15.114Z,18.1
2018-08-30T12:41:17.057Z,18
2018-08-30T12:42:19.152Z,18
2018-08-30T12:43:21.321Z,17.9
2018-08-30T12:44:23.414Z,18
2018-08-30T12:45:25.513Z,18
2018-08-30T12:46:28.114Z,18
2018-08-30T12:47:30.997Z,17.9
2018-08-30T12:48:33.384Z,17.9
2018-08-30T12:49:35.539Z,17.9
2018-08-30T12:50:38.145Z,17.8
2018-08-30T12:51:40.395Z,17.8
2018-08-30T12:52:42.234Z,17.9
2018-08-30T12:53:44.381Z,17.9
2018-08-30T12:54:47.279Z,17.8
2018-08-30T12:55:49.379Z,17.8
2018-08-30T12:56:52.023Z,17.7
2018-08-30T12:57:55.216Z,17.7
2018-08-30T12:58:57.840Z,17.7
2018-08-30T12:59:59.976Z,17.7
2018-08-30T13:01:03.378Z,17.7
2018-08-30T13:02:06.837Z,17.8
2018-08-30T13:03:09.021Z,17.6
2018-08-30T13:04:10.990Z,17.6
2018-08-30T13:05:13.104Z,17.6
2018-08-30T13:06:15.390Z,17.5
2018-08-30T13:07:17.417Z,17.5
2018-08-30T13:08:20.279Z,17.5
2018-08-30T13:09:22.383Z,17.6
2018-08-30T13:10:24.623Z,17.6
2018-08-30T13:11:26.561Z,17.6
2018-08-30T13:12:28.799Z,17.6
2018-08-30T13:13:31.599Z,17.5
2018-08-30T13:14:33.949Z,17.6
2018-08-30T13:15:37.512Z,17.6
2018-08-30T13:16:40.373Z,17.7
2018-08-30T13:17:42.424Z,17.7
2018-08-30T13:18:45.317Z,17.7
2018-08-30T13:19:48.394Z,17.7
2018-08-30T13:20:50.455Z,17.6
2018-08-30T13:21:53.480Z,17.6
2018-08-30T13:22:56.357Z,17.5
2018-08-30T13:23:59.472Z,17.5
2018-08-30T13:25:01.593Z,17.5
2018-08-30T13:26:03.612Z,17.5
2018-08-30T13:27:06.662Z,17.5
2018-08-30T13:28:08.808Z,17.5
2018-08-30T13:29:10.944Z,17.5
2018-08-30T13:30:13.079Z,17.5
2018-08-30T13:31:16.788Z,17.5
2018-08-30T13:32:19.300Z,17.5
2018-08-30T13:33:22.513Z,17.5
2018-08-30T13:34:24.788Z,17.5
2018-08-30T13:35:28.471Z,17.5
2018-08-30T13:36:31.710Z,17.5
2018-08-30T13:37:33.984Z,17.5
2018-08-30T13:38:37.213Z,17.5
2018-08-30T13:39:39.451Z,17.5
2018-08-30T13:40:43.848Z,17.5
2018-08-30T13:41:48.485Z,17.5
2018-08-30T13:42:51.691Z,17.4
2018-08-30T13:43:55.203Z,17.5
2018-08-30T13:44:57.121Z,17.5
2018-08-30T13:45:59.143Z,17.5
2018-08-30T13:47:01.211Z,17.5
2018-08-30T13:48:03.420Z,17.5
2018-08-30T13:49:06.250Z,17.5
2018-08-30T13:50:09.916Z,17.6
2018-08-30T13:51:11.833Z,17.6
2018-08-30T13:52:13.839Z,17.5
2018-08-30T13:53:18.102Z,17.4
2018-08-30T13:54:20.168Z,17.5
2018-08-30T13:55:22.087Z,17.5